sensor_id;sensor_type;location;lat;lon;timestamp;temperature;humidity
62809;DHT22;48848;39.002;-94.584;2023-03-29T00:01:16;20.60;38.80
62809;DHT22;48848;39.002;-94.584;2023-03-29T00:03:42;20.50;38.60
62809;DHT22;48848;39.002;-94.584;2023-03-29T00:06:10;20.50;38.50
62809;DHT22;48848;39.002;-94.584;2023-03-29T00:08:39;20.50;38.50
62809;DHT22;48848;39.002;-94.584;2023-03-29T00:11:05;20.50;38.60
62809;DHT22;48848;39.002;-94.584;2023-03-29T00:13:32;20.60;38.50
62809;DHT22;48848;39.002;-94.584;2023-03-29T00:15:57;20.50;38.70
62809;DHT22;48848;39.002;-94.584;2023-03-29T00:18:23;20.50;38.80
62809;DHT22;48848;39.002;-94.584;2023-03-29T00:20:56;20.60;39.30
62809;DHT22;48848;39.002;-94.584;2023-03-29T00:23:22;20.70;38.60
62809;DHT22;48848;39.002;-94.584;2023-03-29T00:25:49;20.60;38.00
62809;DHT22;48848;39.002;-94.584;2023-03-29T00:28:16;20.60;38.20
62809;DHT22;48848;39.002;-94.584;2023-03-29T00:30:41;20.60;38.30
62809;DHT22;48848;39.002;-94.584;2023-03-29T00:33:07;20.60;38.30
62809;DHT22;48848;39.002;-94.584;2023-03-29T00:35:33;20.60;38.00
62809;DHT22;48848;39.002;-94.584;2023-03-29T00:37:59;21.10;38.10
62809;DHT22;48848;39.002;-94.584;2023-03-29T00:40:25;21.40;37.40
62809;DHT22;48848;39.002;-94.584;2023-03-29T00:42:51;21.80;37.40
62809;DHT22;48848;39.002;-94.584;2023-03-29T00:45:20;21.90;36.90
62809;DHT22;48848;39.002;-94.584;2023-03-29T00:47:47;21.50;37.20
62809;DHT22;48848;39.002;-94.584;2023-03-29T00:52:41;21.10;37.40
62809;DHT22;48848;39.002;-94.584;2023-03-29T00:55:11;21.00;37.30
62809;DHT22;48848;39.002;-94.584;2023-03-29T00:57:38;20.90;37.50
62809;DHT22;48848;39.002;-94.584;2023-03-29T01:00:05;20.90;37.50
62809;DHT22;48848;39.002;-94.584;2023-03-29T01:02:34;20.80;38.30
62809;DHT22;48848;39.002;-94.584;2023-03-29T01:05:08;20.80;37.40
62809;DHT22;48848;39.002;-94.584;2023-03-29T01:07:42;20.70;36.90
62809;DHT22;48848;39.002;-94.584;2023-03-29T01:10:32;20.70;36.70
62809;DHT22;48848;39.002;-94.584;2023-03-29T01:13:02;20.80;36.40
62809;DHT22;48848;39.002;-94.584;2023-03-29T01:15:29;20.70;36.30
62809;DHT22;48848;39.002;-94.584;2023-03-29T01:17:55;20.70;35.90
62809;DHT22;48848;39.002;-94.584;2023-03-29T01:28:05;20.80;37.30
62809;DHT22;48848;39.002;-94.584;2023-03-29T01:30:36;21.10;37.30
62809;DHT22;48848;39.002;-94.584;2023-03-29T01:33:06;21.10;35.90
62809;DHT22;48848;39.002;-94.584;2023-03-29T01:35:44;21.20;36.50
62809;DHT22;48848;39.002;-94.584;2023-03-29T01:38:14;21.20;36.80
62809;DHT22;48848;39.002;-94.584;2023-03-29T01:40:42;21.40;35.50
62809;DHT22;48848;39.002;-94.584;2023-03-29T01:43:19;21.30;36.40
62809;DHT22;48848;39.002;-94.584;2023-03-29T01:45:48;21.30;36.40
62809;DHT22;48848;39.002;-94.584;2023-03-29T01:48:26;21.30;36.50
62809;DHT22;48848;39.002;-94.584;2023-03-29T01:51:15;21.50;36.50
62809;DHT22;48848;39.002;-94.584;2023-03-29T01:53:41;21.40;36.80
62809;DHT22;48848;39.002;-94.584;2023-03-29T01:56:11;21.30;37.10
62809;DHT22;48848;39.002;-94.584;2023-03-29T01:58:39;21.40;37.30
62809;DHT22;48848;39.002;-94.584;2023-03-29T02:01:07;21.30;36.60
62809;DHT22;48848;39.002;-94.584;2023-03-29T02:03:35;21.40;36.40
62809;DHT22;48848;39.002;-94.584;2023-03-29T02:06:09;21.30;36.30
62809;DHT22;48848;39.002;-94.584;2023-03-29T02:08:37;21.30;36.30
62809;DHT22;48848;39.002;-94.584;2023-03-29T02:11:03;21.30;36.30
62809;DHT22;48848;39.002;-94.584;2023-03-29T02:13:29;21.20;36.10
62809;DHT22;48848;39.002;-94.584;2023-03-29T02:15:56;21.20;36.10
62809;DHT22;48848;39.002;-94.584;2023-03-29T02:18:25;21.20;36.00
62809;DHT22;48848;39.002;-94.584;2023-03-29T02:20:51;21.20;35.70
62809;DHT22;48848;39.002;-94.584;2023-03-29T02:25:45;21.10;36.00
62809;DHT22;48848;39.002;-94.584;2023-03-29T02:28:12;21.10;35.50
62809;DHT22;48848;39.002;-94.584;2023-03-29T02:36:06;21.70;35.70
62809;DHT22;48848;39.002;-94.584;2023-03-29T02:38:34;22.50;34.90
62809;DHT22;48848;39.002;-94.584;2023-03-29T02:41:02;23.00;34.10
62809;DHT22;48848;39.002;-94.584;2023-03-29T02:43:28;23.10;33.50
62809;DHT22;48848;39.002;-94.584;2023-03-29T02:45:54;22.80;33.40
62809;DHT22;48848;39.002;-94.584;2023-03-29T02:48:22;22.20;34.10
62809;DHT22;48848;39.002;-94.584;2023-03-29T02:50:50;21.90;34.20
62809;DHT22;48848;39.002;-94.584;2023-03-29T02:53:19;21.70;35.10
62809;DHT22;48848;39.002;-94.584;2023-03-29T02:55:47;21.70;35.10
62809;DHT22;48848;39.002;-94.584;2023-03-29T02:58:13;21.60;35.40
62809;DHT22;48848;39.002;-94.584;2023-03-29T03:00:46;21.60;36.10
62809;DHT22;48848;39.002;-94.584;2023-03-29T03:03:13;21.50;35.60
62809;DHT22;48848;39.002;-94.584;2023-03-29T03:05:42;21.50;35.30
62809;DHT22;48848;39.002;-94.584;2023-03-29T03:08:08;21.50;36.00
62809;DHT22;48848;39.002;-94.584;2023-03-29T03:10:34;21.40;35.40
62809;DHT22;48848;39.002;-94.584;2023-03-29T03:13:01;21.30;35.70
62809;DHT22;48848;39.002;-94.584;2023-03-29T03:15:27;21.30;35.70
62809;DHT22;48848;39.002;-94.584;2023-03-29T03:17:53;21.20;35.50
62809;DHT22;48848;39.002;-94.584;2023-03-29T03:20:19;21.20;35.80
62809;DHT22;48848;39.002;-94.584;2023-03-29T03:22:48;21.10;36.60
62809;DHT22;48848;39.002;-94.584;2023-03-29T03:25:14;21.20;35.90
62809;DHT22;48848;39.002;-94.584;2023-03-29T03:27:41;21.20;35.70
62809;DHT22;48848;39.002;-94.584;2023-03-29T03:30:09;21.10;36.50
62809;DHT22;48848;39.002;-94.584;2023-03-29T03:32:35;21.20;36.10
62809;DHT22;48848;39.002;-94.584;2023-03-29T03:35:02;21.20;36.30
62809;DHT22;48848;39.002;-94.584;2023-03-29T03:37:29;21.30;36.10
62809;DHT22;48848;39.002;-94.584;2023-03-29T03:39:54;21.20;35.70
62809;DHT22;48848;39.002;-94.584;2023-03-29T03:42:20;21.10;35.90
62809;DHT22;48848;39.002;-94.584;2023-03-29T03:44:46;21.10;35.90
62809;DHT22;48848;39.002;-94.584;2023-03-29T03:47:12;21.00;35.80
62809;DHT22;48848;39.002;-94.584;2023-03-29T03:49:39;21.00;35.50
62809;DHT22;48848;39.002;-94.584;2023-03-29T03:52:05;21.00;35.30
62809;DHT22;48848;39.002;-94.584;2023-03-29T03:54:32;20.90;35.40
62809;DHT22;48848;39.002;-94.584;2023-03-29T03:56:58;20.90;35.30
62809;DHT22;48848;39.002;-94.584;2023-03-29T03:59:24;20.80;35.50
62809;DHT22;48848;39.002;-94.584;2023-03-29T04:01:50;20.70;35.50
62809;DHT22;48848;39.002;-94.584;2023-03-29T04:04:15;20.60;35.50
62809;DHT22;48848;39.002;-94.584;2023-03-29T04:06:42;20.50;35.70
62809;DHT22;48848;39.002;-94.584;2023-03-29T04:09:08;20.50;35.70
62809;DHT22;48848;39.002;-94.584;2023-03-29T04:11:34;20.40;35.70
62809;DHT22;48848;39.002;-94.584;2023-03-29T04:14:01;20.30;35.60
62809;DHT22;48848;39.002;-94.584;2023-03-29T04:16:27;20.30;35.60
62809;DHT22;48848;39.002;-94.584;2023-03-29T04:18:53;20.30;36.60
62809;DHT22;48848;39.002;-94.584;2023-03-29T04:21:19;20.20;35.40
62809;DHT22;48848;39.002;-94.584;2023-03-29T04:23:45;20.20;35.50
62809;DHT22;48848;39.002;-94.584;2023-03-29T04:26:12;20.20;35.30
62809;DHT22;48848;39.002;-94.584;2023-03-29T04:28:39;20.10;35.40
62809;DHT22;48848;39.002;-94.584;2023-03-29T04:31:08;20.10;35.40
62809;DHT22;48848;39.002;-94.584;2023-03-29T04:33:34;20.10;35.40
62809;DHT22;48848;39.002;-94.584;2023-03-29T04:36:00;20.00;35.50
62809;DHT22;48848;39.002;-94.584;2023-03-29T04:38:26;20.00;35.70
62809;DHT22;48848;39.002;-94.584;2023-03-29T04:40:52;20.00;35.50
62809;DHT22;48848;39.002;-94.584;2023-03-29T04:43:20;20.00;35.50
62809;DHT22;48848;39.002;-94.584;2023-03-29T04:45:48;19.90;35.40
62809;DHT22;48848;39.002;-94.584;2023-03-29T04:48:13;19.90;35.60
62809;DHT22;48848;39.002;-94.584;2023-03-29T04:50:39;19.90;35.60
62809;DHT22;48848;39.002;-94.584;2023-03-29T04:53:05;19.90;35.50
62809;DHT22;48848;39.002;-94.584;2023-03-29T04:55:32;19.80;35.50
62809;DHT22;48848;39.002;-94.584;2023-03-29T04:57:58;19.80;35.40
62809;DHT22;48848;39.002;-94.584;2023-03-29T05:00:24;19.80;35.40
62809;DHT22;48848;39.002;-94.584;2023-03-29T05:02:52;19.80;35.40
62809;DHT22;48848;39.002;-94.584;2023-03-29T05:05:18;19.70;35.40
62809;DHT22;48848;39.002;-94.584;2023-03-29T05:07:44;19.70;35.50
62809;DHT22;48848;39.002;-94.584;2023-03-29T05:10:10;19.70;35.30
62809;DHT22;48848;39.002;-94.584;2023-03-29T05:12:36;19.60;35.50
62809;DHT22;48848;39.002;-94.584;2023-03-29T05:15:03;19.60;35.50
62809;DHT22;48848;39.002;-94.584;2023-03-29T05:17:29;19.60;35.50
62809;DHT22;48848;39.002;-94.584;2023-03-29T05:19:56;19.60;35.50
62809;DHT22;48848;39.002;-94.584;2023-03-29T05:22:22;19.60;35.40
62809;DHT22;48848;39.002;-94.584;2023-03-29T05:24:48;19.50;35.40
62809;DHT22;48848;39.002;-94.584;2023-03-29T05:27:14;19.50;35.50
62809;DHT22;48848;39.002;-94.584;2023-03-29T05:29:41;19.50;35.40
62809;DHT22;48848;39.002;-94.584;2023-03-29T05:32:09;19.40;35.50
62809;DHT22;48848;39.002;-94.584;2023-03-29T05:34:35;19.40;35.40
62809;DHT22;48848;39.002;-94.584;2023-03-29T05:37:01;19.40;35.40
62809;DHT22;48848;39.002;-94.584;2023-03-29T05:39:27;19.40;35.50
62809;DHT22;48848;39.002;-94.584;2023-03-29T05:41:53;19.40;35.40
62809;DHT22;48848;39.002;-94.584;2023-03-29T05:44:19;19.40;35.50
62809;DHT22;48848;39.002;-94.584;2023-03-29T05:46:45;19.30;35.40
62809;DHT22;48848;39.002;-94.584;2023-03-29T05:49:11;19.30;35.40
62809;DHT22;48848;39.002;-94.584;2023-03-29T05:51:37;19.30;35.50
62809;DHT22;48848;39.002;-94.584;2023-03-29T05:54:03;19.30;35.40
62809;DHT22;48848;39.002;-94.584;2023-03-29T05:56:29;19.30;35.50
62809;DHT22;48848;39.002;-94.584;2023-03-29T05:58:55;19.20;35.50
62809;DHT22;48848;39.002;-94.584;2023-03-29T06:01:23;19.20;35.50
62809;DHT22;48848;39.002;-94.584;2023-03-29T06:03:50;19.20;35.50
62809;DHT22;48848;39.002;-94.584;2023-03-29T06:06:16;19.20;35.70
62809;DHT22;48848;39.002;-94.584;2023-03-29T06:08:43;19.10;35.70
62809;DHT22;48848;39.002;-94.584;2023-03-29T06:11:09;19.10;35.60
62809;DHT22;48848;39.002;-94.584;2023-03-29T06:13:35;19.00;35.50
62809;DHT22;48848;39.002;-94.584;2023-03-29T06:16:03;19.00;35.60
62809;DHT22;48848;39.002;-94.584;2023-03-29T06:18:30;19.00;35.70
62809;DHT22;48848;39.002;-94.584;2023-03-29T06:20:56;19.00;35.70
62809;DHT22;48848;39.002;-94.584;2023-03-29T06:23:22;18.90;35.80
62809;DHT22;48848;39.002;-94.584;2023-03-29T06:25:49;19.00;35.80
62809;DHT22;48848;39.002;-94.584;2023-03-29T06:28:19;19.00;35.80
62809;DHT22;48848;39.002;-94.584;2023-03-29T06:30:46;18.90;35.80
62809;DHT22;48848;39.002;-94.584;2023-03-29T06:33:12;18.80;35.70
62809;DHT22;48848;39.002;-94.584;2023-03-29T06:35:42;18.80;35.80
62809;DHT22;48848;39.002;-94.584;2023-03-29T06:38:08;18.80;35.80
62809;DHT22;48848;39.002;-94.584;2023-03-29T06:40:34;18.80;35.80
62809;DHT22;48848;39.002;-94.584;2023-03-29T06:43:02;18.80;35.80
62809;DHT22;48848;39.002;-94.584;2023-03-29T06:45:30;18.70;35.90
62809;DHT22;48848;39.002;-94.584;2023-03-29T06:47:56;18.70;35.90
62809;DHT22;48848;39.002;-94.584;2023-03-29T06:50:22;18.70;36.00
62809;DHT22;48848;39.002;-94.584;2023-03-29T06:52:48;18.70;35.90
62809;DHT22;48848;39.002;-94.584;2023-03-29T06:55:14;18.70;36.00
62809;DHT22;48848;39.002;-94.584;2023-03-29T06:57:40;18.60;36.00
62809;DHT22;48848;39.002;-94.584;2023-03-29T07:00:07;18.60;35.90
62809;DHT22;48848;39.002;-94.584;2023-03-29T07:03:06;18.60;36.10
62809;DHT22;48848;39.002;-94.584;2023-03-29T07:05:34;18.50;36.00
62809;DHT22;48848;39.002;-94.584;2023-03-29T07:08:05;18.50;36.20
62809;DHT22;48848;39.002;-94.584;2023-03-29T07:10:34;18.40;36.10
62809;DHT22;48848;39.002;-94.584;2023-03-29T07:13:03;18.50;36.00
62809;DHT22;48848;39.002;-94.584;2023-03-29T07:15:30;18.50;36.00
62809;DHT22;48848;39.002;-94.584;2023-03-29T07:17:56;18.40;35.90
62809;DHT22;48848;39.002;-94.584;2023-03-29T07:20:22;18.40;36.10
62809;DHT22;48848;39.002;-94.584;2023-03-29T07:22:49;18.40;36.00
62809;DHT22;48848;39.002;-94.584;2023-03-29T07:25:19;18.30;36.10
62809;DHT22;48848;39.002;-94.584;2023-03-29T07:27:45;18.30;36.00
62809;DHT22;48848;39.002;-94.584;2023-03-29T07:30:13;18.30;36.10
62809;DHT22;48848;39.002;-94.584;2023-03-29T07:32:41;18.30;36.10
62809;DHT22;48848;39.002;-94.584;2023-03-29T07:35:08;18.30;36.30
62809;DHT22;48848;39.002;-94.584;2023-03-29T07:37:35;18.30;36.20
62809;DHT22;48848;39.002;-94.584;2023-03-29T07:40:08;18.30;36.30
62809;DHT22;48848;39.002;-94.584;2023-03-29T07:42:46;18.20;36.10
62809;DHT22;48848;39.002;-94.584;2023-03-29T07:45:13;18.20;36.40
62809;DHT22;48848;39.002;-94.584;2023-03-29T07:47:41;18.10;36.30
62809;DHT22;48848;39.002;-94.584;2023-03-29T07:50:07;18.10;36.40
62809;DHT22;48848;39.002;-94.584;2023-03-29T07:52:33;18.10;36.40
62809;DHT22;48848;39.002;-94.584;2023-03-29T07:54:59;18.10;36.30
62809;DHT22;48848;39.002;-94.584;2023-03-29T07:57:25;18.00;36.30
62809;DHT22;48848;39.002;-94.584;2023-03-29T07:59:52;18.00;36.50
62809;DHT22;48848;39.002;-94.584;2023-03-29T08:02:18;18.00;36.60
62809;DHT22;48848;39.002;-94.584;2023-03-29T08:04:44;17.90;36.60
62809;DHT22;48848;39.002;-94.584;2023-03-29T08:07:10;17.90;36.70
62809;DHT22;48848;39.002;-94.584;2023-03-29T08:09:37;17.90;36.60
62809;DHT22;48848;39.002;-94.584;2023-03-29T08:12:03;17.90;36.60
62809;DHT22;48848;39.002;-94.584;2023-03-29T08:14:28;17.90;36.60
62809;DHT22;48848;39.002;-94.584;2023-03-29T08:16:54;17.80;36.60
62809;DHT22;48848;39.002;-94.584;2023-03-29T08:19:20;17.80;36.70
62809;DHT22;48848;39.002;-94.584;2023-03-29T08:21:46;17.80;36.60
62809;DHT22;48848;39.002;-94.584;2023-03-29T08:24:12;17.80;36.80
62809;DHT22;48848;39.002;-94.584;2023-03-29T08:26:38;17.70;36.70
62809;DHT22;48848;39.002;-94.584;2023-03-29T08:29:04;17.70;36.80
62809;DHT22;48848;39.002;-94.584;2023-03-29T08:31:31;17.70;36.70
62809;DHT22;48848;39.002;-94.584;2023-03-29T08:33:58;17.70;36.80
62809;DHT22;48848;39.002;-94.584;2023-03-29T08:36:23;17.70;36.70
62809;DHT22;48848;39.002;-94.584;2023-03-29T08:38:49;17.60;36.80
62809;DHT22;48848;39.002;-94.584;2023-03-29T08:43:55;17.60;36.90
62809;DHT22;48848;39.002;-94.584;2023-03-29T08:48:58;17.50;36.90
62809;DHT22;48848;39.002;-94.584;2023-03-29T08:51:31;17.50;36.90
62809;DHT22;48848;39.002;-94.584;2023-03-29T08:54:01;17.50;37.00
62809;DHT22;48848;39.002;-94.584;2023-03-29T08:56:29;17.50;37.00
62809;DHT22;48848;39.002;-94.584;2023-03-29T08:58:55;17.50;37.00
62809;DHT22;48848;39.002;-94.584;2023-03-29T09:01:22;17.50;37.10
62809;DHT22;48848;39.002;-94.584;2023-03-29T09:04:01;17.40;36.90
62809;DHT22;48848;39.002;-94.584;2023-03-29T09:06:27;17.40;37.20
62809;DHT22;48848;39.002;-94.584;2023-03-29T09:08:53;17.40;37.00
62809;DHT22;48848;39.002;-94.584;2023-03-29T09:19:15;17.30;37.20
62809;DHT22;48848;39.002;-94.584;2023-03-29T09:21:45;17.20;37.20
62809;DHT22;48848;39.002;-94.584;2023-03-29T09:24:36;17.30;37.30
62809;DHT22;48848;39.002;-94.584;2023-03-29T09:27:14;17.20;37.20
62809;DHT22;48848;39.002;-94.584;2023-03-29T09:32:26;17.20;37.20
62809;DHT22;48848;39.002;-94.584;2023-03-29T09:35:13;17.20;37.60
62809;DHT22;48848;39.002;-94.584;2023-03-29T09:37:43;17.10;37.20
62809;DHT22;48848;39.002;-94.584;2023-03-29T09:40:11;17.10;37.20
62809;DHT22;48848;39.002;-94.584;2023-03-29T09:42:37;17.10;37.50
62809;DHT22;48848;39.002;-94.584;2023-03-29T09:45:04;17.10;37.40
62809;DHT22;48848;39.002;-94.584;2023-03-29T09:50:05;17.00;37.30
62809;DHT22;48848;39.002;-94.584;2023-03-29T09:52:34;17.00;37.40
62809;DHT22;48848;39.002;-94.584;2023-03-29T09:55:00;17.00;37.40
62809;DHT22;48848;39.002;-94.584;2023-03-29T09:57:28;17.00;37.40
62809;DHT22;48848;39.002;-94.584;2023-03-29T09:59:55;17.00;37.40
62809;DHT22;48848;39.002;-94.584;2023-03-29T10:02:21;16.90;37.40
62809;DHT22;48848;39.002;-94.584;2023-03-29T10:04:53;16.90;37.40
62809;DHT22;48848;39.002;-94.584;2023-03-29T10:07:50;16.90;37.50
62809;DHT22;48848;39.002;-94.584;2023-03-29T10:10:47;17.10;39.10
62809;DHT22;48848;39.002;-94.584;2023-03-29T10:13:09;18.20;37.80
62809;DHT22;48848;39.002;-94.584;2023-03-29T10:15:37;19.30;35.90
62809;DHT22;48848;39.002;-94.584;2023-03-29T10:18:10;19.10;34.30
62809;DHT22;48848;39.002;-94.584;2023-03-29T10:20:37;18.40;35.40
62809;DHT22;48848;39.002;-94.584;2023-03-29T10:23:04;18.00;35.90
62809;DHT22;48848;39.002;-94.584;2023-03-29T10:25:31;17.80;36.30
62809;DHT22;48848;39.002;-94.584;2023-03-29T10:28:02;17.50;36.60
62809;DHT22;48848;39.002;-94.584;2023-03-29T10:30:28;17.50;36.80
62809;DHT22;48848;39.002;-94.584;2023-03-29T10:32:57;17.40;37.00
62809;DHT22;48848;39.002;-94.584;2023-03-29T10:37:51;17.20;37.40
62809;DHT22;48848;39.002;-94.584;2023-03-29T10:40:21;17.10;37.40
62809;DHT22;48848;39.002;-94.584;2023-03-29T10:42:50;17.10;37.50
62809;DHT22;48848;39.002;-94.584;2023-03-29T10:45:33;18.00;38.40
62809;DHT22;48848;39.002;-94.584;2023-03-29T10:47:59;19.10;35.90
62809;DHT22;48848;39.002;-94.584;2023-03-29T10:50:30;19.50;35.50
62809;DHT22;48848;39.002;-94.584;2023-03-29T10:52:57;19.90;34.90
62809;DHT22;48848;39.002;-94.584;2023-03-29T10:55:24;20.20;34.50
62809;DHT22;48848;39.002;-94.584;2023-03-29T10:57:54;20.20;34.40
62809;DHT22;48848;39.002;-94.584;2023-03-29T11:00:31;20.20;34.40
62809;DHT22;48848;39.002;-94.584;2023-03-29T11:03:17;20.40;34.70
62809;DHT22;48848;39.002;-94.584;2023-03-29T11:06:07;20.40;34.70
62809;DHT22;48848;39.002;-94.584;2023-03-29T11:11:15;19.50;34.40
62809;DHT22;48848;39.002;-94.584;2023-03-29T11:13:59;19.10;35.20
62809;DHT22;48848;39.002;-94.584;2023-03-29T11:16:51;18.80;35.80
62809;DHT22;48848;39.002;-94.584;2023-03-29T11:29:27;20.50;34.90
62809;DHT22;48848;39.002;-94.584;2023-03-29T11:42:31;18.90;36.10
62809;DHT22;48848;39.002;-94.584;2023-03-29T11:44:58;18.70;37.40
62809;DHT22;48848;39.002;-94.584;2023-03-29T11:47:27;18.50;36.70
62809;DHT22;48848;39.002;-94.584;2023-03-29T11:52:40;18.70;37.50
62809;DHT22;48848;39.002;-94.584;2023-03-29T11:55:18;19.50;36.90
62809;DHT22;48848;39.002;-94.584;2023-03-29T11:58:01;20.00;35.70
62809;DHT22;48848;39.002;-94.584;2023-03-29T12:00:39;20.50;35.00
62809;DHT22;48848;39.002;-94.584;2023-03-29T12:03:16;20.50;34.00
62809;DHT22;48848;39.002;-94.584;2023-03-29T12:05:47;19.70;34.80
62809;DHT22;48848;39.002;-94.584;2023-03-29T12:08:17;19.30;35.30
62809;DHT22;48848;39.002;-94.584;2023-03-29T12:10:47;19.10;35.70
62809;DHT22;48848;39.002;-94.584;2023-03-29T12:13:15;18.00;37.40
62809;DHT22;48848;39.002;-94.584;2023-03-29T12:15:48;17.50;39.10
62809;DHT22;48848;39.002;-94.584;2023-03-29T12:18:19;17.20;39.60
62809;DHT22;48848;39.002;-94.584;2023-03-29T12:20:57;17.10;40.00
62809;DHT22;48848;39.002;-94.584;2023-03-29T12:23:24;16.90;40.20
62809;DHT22;48848;39.002;-94.584;2023-03-29T12:28:43;17.00;40.20
62809;DHT22;48848;39.002;-94.584;2023-03-29T12:31:19;17.80;39.40
62809;DHT22;48848;39.002;-94.584;2023-03-29T12:39:03;18.70;36.30
62809;DHT22;48848;39.002;-94.584;2023-03-29T12:41:33;18.00;37.50
62809;DHT22;48848;39.002;-94.584;2023-03-29T12:44:00;17.60;38.70
62809;DHT22;48848;39.002;-94.584;2023-03-29T12:46:30;17.50;39.20
62809;DHT22;48848;39.002;-94.584;2023-03-29T12:48:59;17.40;39.20
62809;DHT22;48848;39.002;-94.584;2023-03-29T12:51:30;17.20;39.60
62809;DHT22;48848;39.002;-94.584;2023-03-29T12:54:03;17.10;42.60
62809;DHT22;48848;39.002;-94.584;2023-03-29T12:56:39;17.10;41.10
62809;DHT22;48848;39.002;-94.584;2023-03-29T13:01:35;18.00;40.00
62809;DHT22;48848;39.002;-94.584;2023-03-29T13:04:15;18.60;38.40
62809;DHT22;48848;39.002;-94.584;2023-03-29T13:09:27;18.70;37.10
62809;DHT22;48848;39.002;-94.584;2023-03-29T13:11:55;18.00;38.20
62809;DHT22;48848;39.002;-94.584;2023-03-29T13:14:23;17.60;39.20
62809;DHT22;48848;39.002;-94.584;2023-03-29T13:16:50;17.40;40.00
62809;DHT22;48848;39.002;-94.584;2023-03-29T13:29:48;17.10;41.40
62809;DHT22;48848;39.002;-94.584;2023-03-29T13:39:48;18.60;39.30
62809;DHT22;48848;39.002;-94.584;2023-03-29T13:44:42;19.20;36.10
62809;DHT22;48848;39.002;-94.584;2023-03-29T13:49:37;18.10;38.30
62809;DHT22;48848;39.002;-94.584;2023-03-29T13:52:17;17.60;39.10
62809;DHT22;48848;39.002;-94.584;2023-03-29T13:57:39;17.30;40.30
62809;DHT22;48848;39.002;-94.584;2023-03-29T14:02:49;17.10;40.60
62809;DHT22;48848;39.002;-94.584;2023-03-29T14:05:17;17.10;40.70
62809;DHT22;48848;39.002;-94.584;2023-03-29T14:07:45;17.10;40.90
62809;DHT22;48848;39.002;-94.584;2023-03-29T14:10:17;17.00;40.90
62809;DHT22;48848;39.002;-94.584;2023-03-29T14:12:43;17.00;41.20
62809;DHT22;48848;39.002;-94.584;2023-03-29T14:15:17;17.20;41.30
62809;DHT22;48848;39.002;-94.584;2023-03-29T14:17:44;17.00;41.00
62809;DHT22;48848;39.002;-94.584;2023-03-29T14:20:12;16.90;41.00
62809;DHT22;48848;39.002;-94.584;2023-03-29T14:22:40;16.90;40.90
62809;DHT22;48848;39.002;-94.584;2023-03-29T14:25:11;16.80;41.00
62809;DHT22;48848;39.002;-94.584;2023-03-29T14:27:39;16.80;41.10
62809;DHT22;48848;39.002;-94.584;2023-03-29T14:32:44;17.10;42.40
62809;DHT22;48848;39.002;-94.584;2023-03-29T14:35:10;16.80;41.50
62809;DHT22;48848;39.002;-94.584;2023-03-29T14:37:37;17.00;41.70
62809;DHT22;48848;39.002;-94.584;2023-03-29T14:40:03;16.80;41.30
62809;DHT22;48848;39.002;-94.584;2023-03-29T14:42:33;16.90;41.30
62809;DHT22;48848;39.002;-94.584;2023-03-29T14:45:03;16.90;41.30
62809;DHT22;48848;39.002;-94.584;2023-03-29T14:47:29;16.80;41.30
62809;DHT22;48848;39.002;-94.584;2023-03-29T14:49:56;16.80;41.30
62809;DHT22;48848;39.002;-94.584;2023-03-29T14:52:25;16.70;41.40
62809;DHT22;48848;39.002;-94.584;2023-03-29T14:54:52;16.60;41.80
62809;DHT22;48848;39.002;-94.584;2023-03-29T14:57:22;16.90;41.00
62809;DHT22;48848;39.002;-94.584;2023-03-29T14:59:52;16.90;41.00
62809;DHT22;48848;39.002;-94.584;2023-03-29T15:04:53;16.90;40.80
62809;DHT22;48848;39.002;-94.584;2023-03-29T15:07:21;17.10;40.30
62809;DHT22;48848;39.002;-94.584;2023-03-29T15:09:47;17.10;40.40
62809;DHT22;48848;39.002;-94.584;2023-03-29T15:12:13;17.00;40.70
62809;DHT22;48848;39.002;-94.584;2023-03-29T15:14:40;17.00;40.40
62809;DHT22;48848;39.002;-94.584;2023-03-29T15:22:51;17.20;40.30
62809;DHT22;48848;39.002;-94.584;2023-03-29T15:25:18;17.30;40.20
62809;DHT22;48848;39.002;-94.584;2023-03-29T15:27:46;17.40;40.40
62809;DHT22;48848;39.002;-94.584;2023-03-29T15:30:14;17.20;40.70
62809;DHT22;48848;39.002;-94.584;2023-03-29T15:32:41;17.20;40.30
62809;DHT22;48848;39.002;-94.584;2023-03-29T15:35:07;17.30;40.20
62809;DHT22;48848;39.002;-94.584;2023-03-29T15:37:44;17.30;40.20
62809;DHT22;48848;39.002;-94.584;2023-03-29T15:40:14;17.20;40.40
62809;DHT22;48848;39.002;-94.584;2023-03-29T15:42:40;17.10;40.40
62809;DHT22;48848;39.002;-94.584;2023-03-29T15:45:11;17.20;40.20
62809;DHT22;48848;39.002;-94.584;2023-03-29T15:47:38;17.10;40.00
62809;DHT22;48848;39.002;-94.584;2023-03-29T15:50:04;17.10;40.20
62809;DHT22;48848;39.002;-94.584;2023-03-29T15:52:31;17.00;40.20
62809;DHT22;48848;39.002;-94.584;2023-03-29T15:54:57;17.10;40.00
62809;DHT22;48848;39.002;-94.584;2023-03-29T15:57:22;17.20;39.90
62809;DHT22;48848;39.002;-94.584;2023-03-29T15:59:48;17.20;39.80
62809;DHT22;48848;39.002;-94.584;2023-03-29T16:02:15;17.30;39.70
62809;DHT22;48848;39.002;-94.584;2023-03-29T16:04:42;17.30;39.70
62809;DHT22;48848;39.002;-94.584;2023-03-29T16:07:15;17.30;39.40
62809;DHT22;48848;39.002;-94.584;2023-03-29T16:09:41;17.30;39.50
62809;DHT22;48848;39.002;-94.584;2023-03-29T16:12:08;17.30;39.60
62809;DHT22;48848;39.002;-94.584;2023-03-29T16:14:34;17.30;39.40
62809;DHT22;48848;39.002;-94.584;2023-03-29T16:17:00;17.40;39.30
62809;DHT22;48848;39.002;-94.584;2023-03-29T16:19:28;17.40;39.50
62809;DHT22;48848;39.002;-94.584;2023-03-29T16:21:54;17.40;39.50
62809;DHT22;48848;39.002;-94.584;2023-03-29T16:24:21;17.40;39.30
62809;DHT22;48848;39.002;-94.584;2023-03-29T16:26:48;17.40;39.20
62809;DHT22;48848;39.002;-94.584;2023-03-29T16:29:14;17.40;39.30
62809;DHT22;48848;39.002;-94.584;2023-03-29T16:31:43;17.40;39.00
62809;DHT22;48848;39.002;-94.584;2023-03-29T16:34:09;17.40;39.00
62809;DHT22;48848;39.002;-94.584;2023-03-29T16:36:37;17.40;39.00
62809;DHT22;48848;39.002;-94.584;2023-03-29T16:39:04;17.40;38.90
62809;DHT22;48848;39.002;-94.584;2023-03-29T16:41:30;17.40;38.90
62809;DHT22;48848;39.002;-94.584;2023-03-29T16:43:57;17.40;39.00
62809;DHT22;48848;39.002;-94.584;2023-03-29T16:46:23;17.40;38.20
62809;DHT22;48848;39.002;-94.584;2023-03-29T16:48:49;17.40;38.80
62809;DHT22;48848;39.002;-94.584;2023-03-29T16:51:16;17.40;39.10
62809;DHT22;48848;39.002;-94.584;2023-03-29T16:53:42;17.40;39.30
62809;DHT22;48848;39.002;-94.584;2023-03-29T16:56:08;17.40;39.20
62809;DHT22;48848;39.002;-94.584;2023-03-29T16:58:37;17.40;38.60
62809;DHT22;48848;39.002;-94.584;2023-03-29T17:01:07;17.40;39.20
62809;DHT22;48848;39.002;-94.584;2023-03-29T17:03:36;17.40;38.70
62809;DHT22;48848;39.002;-94.584;2023-03-29T17:06:02;17.40;39.20
62809;DHT22;48848;39.002;-94.584;2023-03-29T17:08:28;17.40;39.50